createdAt,value
2022-10-10T00:01:15.382Z,100517.75
2022-10-10T00:03:43.368Z,100518.47
2022-10-10T00:06:12.169Z,100519.47
2022-10-10T00:08:41.689Z,100507.53
2022-10-10T00:11:09.608Z,100501.19
2022-10-10T00:13:37.560Z,100507.25
2022-10-10T00:16:05.750Z,100505.47
2022-10-10T00:18:34.133Z,100501.56
2022-10-10T00:21:02.005Z,100507.50
2022-10-10T00:23:29.893Z,100509.16
2022-10-10T00:25:59.081Z,100507.91
2022-10-10T00:28:27.298Z,100506.16
2022-10-10T00:30:55.156Z,100502.00
2022-10-10T00:33:23.037Z,100505.88
2022-10-10T00:35:51.066Z,100507.94
2022-10-10T00:38:18.885Z,100508.06
2022-10-10T00:40:48.424Z,100496.09
2022-10-10T00:43:19.263Z,100498.91
2022-10-10T00:45:48.638Z,100500.41
2022-10-10T00:48:19.175Z,100489.75
2022-10-10T00:50:51.764Z,100504.50
2022-10-10T00:53:24.393Z,100504.50
2022-10-10T00:55:53.289Z,100492.59
2022-10-10T00:58:23.256Z,100493.81
2022-10-10T01:00:51.474Z,100487.50
2022-10-10T01:03:19.768Z,100480.41
2022-10-10T01:05:49.022Z,100490.94
2022-10-10T01:08:17.860Z,100481.59
2022-10-10T01:10:59.344Z,100482.50
2022-10-10T01:13:35.369Z,100474.09
2022-10-10T01:16:11.873Z,100476.75
2022-10-10T01:18:46.293Z,100477.03
2022-10-10T01:21:21.190Z,100480.88
2022-10-10T01:24:12.152Z,100479.81
2022-10-10T01:27:08.993Z,100474.88
2022-10-10T01:29:43.625Z,100479.56
2022-10-10T01:32:16.382Z,100477.44
2022-10-10T01:34:56.749Z,100473.38
2022-10-10T01:37:33.795Z,100467.44
2022-10-10T01:40:09.114Z,100466.13
2022-10-10T01:42:42.744Z,100468.16
2022-10-10T01:45:12.106Z,100468.94
2022-10-10T01:47:40.121Z,100457.03
2022-10-10T01:50:12.617Z,100461.91
2022-10-10T01:52:53.817Z,100467.38
2022-10-10T01:55:34.637Z,100453.81
2022-10-10T01:58:14.328Z,100455.53
2022-10-10T02:00:48.815Z,100459.34
2022-10-10T02:03:21.305Z,100450.81
2022-10-10T02:05:54.176Z,100451.53
2022-10-10T02:08:30.167Z,100447.25
2022-10-10T02:11:02.209Z,100449.63
2022-10-10T02:13:35.868Z,100443.72
2022-10-10T02:16:09.493Z,100449.69
2022-10-10T02:18:37.975Z,100441.16
2022-10-10T02:21:09.427Z,100447.97
2022-10-10T02:23:37.894Z,100444.88
2022-10-10T02:26:05.720Z,100440.00
2022-10-10T02:28:40.915Z,100435.47
2022-10-10T02:31:15.457Z,100439.94
2022-10-10T02:33:47.931Z,100441.84
2022-10-10T02:36:17.949Z,100440.13
2022-10-10T02:38:47.450Z,100440.13
2022-10-10T02:41:18.779Z,100437.78
2022-10-10T02:43:47.523Z,100443.69
2022-10-10T02:46:16.964Z,100430.34
2022-10-10T02:48:44.927Z,100437.25
2022-10-10T02:51:14.014Z,100438.88
2022-10-10T02:53:41.965Z,100433.88
2022-10-10T02:56:10.026Z,100440.34
2022-10-10T02:58:38.483Z,100404.22
2022-10-10T03:01:06.649Z,100439.28
2022-10-10T03:03:36.011Z,100435.72
2022-10-10T03:06:05.059Z,100431.06
2022-10-10T03:08:33.085Z,100433.97
2022-10-10T03:11:02.563Z,100445.25
2022-10-10T03:13:30.678Z,100437.47
2022-10-10T03:15:58.791Z,100440.19
2022-10-10T03:18:29.350Z,100443.72
2022-10-10T03:20:58.646Z,100444.16
2022-10-10T03:23:27.077Z,100437.66
2022-10-10T03:25:55.388Z,100428.97
2022-10-10T03:28:23.406Z,100430.53
2022-10-10T03:30:51.370Z,100439.94
2022-10-10T03:33:19.544Z,100435.81
2022-10-10T03:35:47.429Z,100441.41
2022-10-10T03:38:17.621Z,100443.72
2022-10-10T03:40:46.096Z,100416.56
2022-10-10T03:43:15.220Z,100439.38
2022-10-10T03:45:44.236Z,100435.78
2022-10-10T03:48:12.784Z,100427.72
2022-10-10T03:50:40.806Z,100427.72
2022-10-10T03:53:09.971Z,100387.19
2022-10-10T03:55:41.846Z,100382.91
2022-10-10T03:58:09.928Z,100401.03
2022-10-10T04:00:37.902Z,100395.25
2022-10-10T04:03:06.507Z,100393.69
2022-10-10T04:05:35.633Z,100415.59
2022-10-10T04:08:03.709Z,100431.72
2022-10-10T04:10:31.724Z,100379.22
2022-10-10T04:13:01.164Z,100411.59
2022-10-10T04:15:29.239Z,100379.81
2022-10-10T04:17:57.318Z,100348.47
2022-10-10T04:20:25.767Z,100352.41
2022-10-10T04:22:54.059Z,100434.41
2022-10-10T04:25:22.362Z,100380.13
2022-10-10T04:27:50.387Z,100375.94
2022-10-10T04:30:19.769Z,100382.97
2022-10-10T04:32:47.937Z,100382.97
2022-10-10T04:35:15.905Z,100373.13
2022-10-10T04:37:45.649Z,100424.38
2022-10-10T04:40:13.698Z,100402.88
2022-10-10T04:42:41.562Z,100374.88
2022-10-10T04:45:10.419Z,100365.88
2022-10-10T04:47:40.137Z,100425.56
2022-10-10T04:50:08.681Z,100357.28
2022-10-10T04:52:36.639Z,100378.28
2022-10-10T04:55:05.032Z,100373.84
2022-10-10T04:57:32.882Z,100373.19
2022-10-10T05:00:00.742Z,100376.78
2022-10-10T05:02:28.689Z,100400.25
2022-10-10T05:04:57.874Z,100367.94
2022-10-10T05:07:25.796Z,100388.41
2022-10-10T05:09:54.126Z,100406.63
2022-10-10T05:12:21.941Z,100421.28
2022-10-10T05:14:49.748Z,100423.78
2022-10-10T05:17:17.734Z,100424.63
2022-10-10T05:19:45.644Z,100416.94
2022-10-10T05:22:14.776Z,100425.59
2022-10-10T05:24:42.597Z,100425.88
2022-10-10T05:27:10.420Z,100429.41
2022-10-10T05:29:39.137Z,100433.75
2022-10-10T05:32:10.222Z,100427.97
2022-10-10T05:34:38.703Z,100443.19
2022-10-10T05:37:06.616Z,100435.06
2022-10-10T05:39:36.190Z,100435.72
2022-10-10T05:42:04.971Z,100430.41
2022-10-10T05:44:33.736Z,100429.56
2022-10-10T05:47:01.687Z,100422.97
2022-10-10T05:49:29.595Z,100421.50
2022-10-10T05:51:57.449Z,100426.91
2022-10-10T05:54:25.289Z,100430.53
2022-10-10T05:56:54.422Z,100430.09
2022-10-10T05:59:22.350Z,100424.59
2022-10-10T06:01:50.307Z,100435.66
2022-10-10T06:04:18.439Z,100435.00
2022-10-10T06:06:46.766Z,100436.97
2022-10-10T06:09:14.666Z,100409.50
2022-10-10T06:11:42.778Z,100431.84
2022-10-10T06:14:12.053Z,100431.78
2022-10-10T06:16:40.385Z,100438.56
2022-10-10T06:19:12.541Z,100431.06
2022-10-10T06:21:42.521Z,100430.94
2022-10-10T06:24:10.921Z,100431.19
2022-10-10T06:26:38.849Z,100435.00
2022-10-10T06:29:07.359Z,100430.34
2022-10-10T06:31:39.408Z,100432.91
2022-10-10T06:34:07.289Z,100434.75
2022-10-10T06:36:35.448Z,100428.16
2022-10-10T06:39:03.311Z,100431.69
2022-10-10T06:41:31.197Z,100417.41
2022-10-10T06:43:59.075Z,100416.16
2022-10-10T06:46:26.917Z,100419.97
2022-10-10T06:48:56.041Z,100419.44
2022-10-10T06:51:25.680Z,100418.81
2022-10-10T06:53:53.470Z,100423.16
2022-10-10T06:56:27.201Z,100422.44
2022-10-10T06:58:56.208Z,100426.09
2022-10-10T07:01:25.553Z,100424.56
2022-10-10T07:03:53.576Z,100429.50
2022-10-10T07:06:22.899Z,100424.75
2022-10-10T07:08:50.909Z,100428.31
2022-10-10T07:11:18.739Z,100420.16
2022-10-10T07:13:46.572Z,100423.47
2022-10-10T07:16:14.393Z,100420.97
2022-10-10T07:18:42.212Z,100421.75
2022-10-10T07:21:11.063Z,100420.06
2022-10-10T07:23:40.209Z,100403.09
2022-10-10T07:26:11.746Z,100411.84
2022-10-10T07:28:40.503Z,100411.97
2022-10-10T07:31:10.352Z,100414.63
2022-10-10T07:33:40.039Z,100409.59
2022-10-10T07:36:08.610Z,100413.88
2022-10-10T07:38:37.885Z,100415.81
2022-10-10T07:41:08.136Z,100410.25
2022-10-10T07:43:37.211Z,100412.97
2022-10-10T07:46:08.220Z,100414.75
2022-10-10T07:48:39.144Z,100416.56
2022-10-10T07:51:07.401Z,100411.66
2022-10-10T07:53:35.260Z,100415.25
2022-10-10T07:56:05.432Z,100412.19
2022-10-10T07:58:35.473Z,100418.25
2022-10-10T08:01:04.389Z,100410.94
2022-10-10T08:03:32.221Z,100412.81
2022-10-10T08:06:00.192Z,100412.91
2022-10-10T08:08:28.355Z,100409.03
2022-10-10T08:10:56.188Z,100403.38
2022-10-10T08:13:24.020Z,100410.19
2022-10-10T08:15:53.195Z,100407.06
2022-10-10T08:18:21.182Z,100403.94
2022-10-10T08:20:49.023Z,100401.66
2022-10-10T08:23:17.634Z,100373.03
2022-10-10T08:25:47.243Z,100387.75
2022-10-10T08:28:15.045Z,100393.13
2022-10-10T08:30:42.880Z,100395.03
2022-10-10T08:33:12.069Z,100394.44
2022-10-10T08:35:40.205Z,100396.38
2022-10-10T08:38:08.940Z,100388.28
2022-10-10T08:40:43.369Z,100386.91
2022-10-10T08:43:21.388Z,100388.81
2022-10-10T08:45:50.631Z,100388.19
2022-10-10T08:48:25.688Z,100392.59
2022-10-10T08:51:00.661Z,100386.06
2022-10-10T08:53:32.844Z,100386.19
2022-10-10T08:56:01.632Z,100385.38
2022-10-10T08:58:34.141Z,100385.47
2022-10-10T09:01:10.132Z,100382.22
2022-10-10T09:03:44.207Z,100371.53
2022-10-10T09:06:25.756Z,100369.22
2022-10-10T09:09:01.987Z,100371.00
2022-10-10T09:11:42.499Z,100359.31
2022-10-10T09:14:21.195Z,100361.84
2022-10-10T09:16:56.107Z,100360.28
2022-10-10T09:19:38.208Z,100356.06
2022-10-10T09:22:12.062Z,100359.63
2022-10-10T09:24:46.212Z,100353.94
2022-10-10T09:27:17.713Z,100349.78
2022-10-10T09:29:50.547Z,100351.72
2022-10-10T09:32:23.439Z,100345.19
2022-10-10T09:34:55.780Z,100347.72
2022-10-10T09:37:46.242Z,100355.38
2022-10-10T09:40:22.369Z,100344.59
2022-10-10T09:42:50.240Z,100342.19
2022-10-10T09:45:20.680Z,100342.34
2022-10-10T09:47:52.432Z,100341.78
2022-10-10T09:50:21.961Z,100343.91
2022-10-10T09:52:50.721Z,100338.66
2022-10-10T09:55:26.919Z,100339.06
2022-10-10T09:57:57.723Z,100333.56
2022-10-10T10:00:29.213Z,100334.75
2022-10-10T10:03:15.081Z,100322.13
2022-10-10T10:05:47.101Z,100331.53
2022-10-10T10:08:25.143Z,100332.50
2022-10-10T10:10:57.852Z,100325.88
2022-10-10T10:13:28.814Z,100315.97
2022-10-10T10:16:03.463Z,100322.78
2022-10-10T10:18:32.520Z,100316.94
2022-10-10T10:21:23.622Z,100323.97
2022-10-10T10:23:54.737Z,100324.25
2022-10-10T10:26:25.338Z,100316.03
2022-10-10T10:28:53.998Z,100319.63
2022-10-10T10:31:35.484Z,100312.25
2022-10-10T10:34:13.704Z,100316.66
2022-10-10T10:36:52.818Z,100310.06
2022-10-10T10:39:36.598Z,100309.38
2022-10-10T10:42:15.237Z,100300.16
2022-10-10T10:44:49.340Z,100292.50
2022-10-10T10:50:26.677Z,100299.63
2022-10-10T10:53:02.501Z,100289.28
2022-10-10T10:55:39.408Z,100283.22
2022-10-10T10:59:05.795Z,100277.22
2022-10-10T11:01:45.098Z,100277.09
2022-10-10T11:05:24.833Z,100265.31
2022-10-10T11:07:20.317Z,100272.91
2022-10-10T11:09:56.965Z,100261.97
2022-10-10T11:12:48.142Z,100259.56
2022-10-10T11:15:20.556Z,100262.13
2022-10-10T11:17:54.245Z,100258.78
2022-10-10T11:20:29.541Z,100250.38
2022-10-10T11:23:06.619Z,100257.09
2022-10-10T11:25:43.954Z,100261.28
2022-10-10T11:28:16.754Z,100251.31
2022-10-10T11:30:50.554Z,100241.22
2022-10-10T11:33:23.485Z,100247.97
2022-10-10T11:35:56.096Z,100238.75
2022-10-10T11:38:30.212Z,100216.78
2022-10-10T11:41:02.712Z,100230.31
2022-10-10T11:43:39.421Z,100232.00
2022-10-10T11:46:15.918Z,100226.25
2022-10-10T11:48:52.200Z,100227.09
2022-10-10T11:51:31.469Z,100230.38
2022-10-10T11:54:05.821Z,100227.06
2022-10-10T11:56:39.076Z,100229.56
2022-10-10T11:59:12.804Z,100227.13
2022-10-10T12:01:47.642Z,100216.25
2022-10-10T12:04:15.523Z,100206.28
2022-10-10T12:06:48.319Z,100210.66
2022-10-10T12:09:22.582Z,100216.63
2022-10-10T12:11:57.032Z,100217.69
2022-10-10T12:14:27.749Z,100206.00
2022-10-10T12:16:57.263Z,100209.44
2022-10-10T12:19:27.886Z,100199.44
2022-10-10T12:21:59.268Z,100202.88
2022-10-10T12:24:29.022Z,100208.03
2022-10-10T12:27:30.679Z,100198.75
2022-10-10T12:30:31.853Z,100208.09
2022-10-10T12:33:00.029Z,100205.56
2022-10-10T12:35:31.292Z,100197.06
2022-10-10T12:38:29.350Z,100204.72
2022-10-10T12:41:15.045Z,100181.88
2022-10-10T12:44:20.710Z,100193.69
2022-10-10T12:47:08.871Z,100196.22
2022-10-10T12:49:36.908Z,100187.78
2022-10-10T12:52:13.155Z,100191.19
2022-10-10T12:54:44.104Z,100187.84
2022-10-10T12:57:20.652Z,100183.63
2022-10-10T12:59:49.955Z,100184.47
2022-10-10T13:02:23.058Z,100176.03
2022-10-10T13:04:54.535Z,100181.97
2022-10-10T13:07:23.925Z,100173.53
2022-10-10T13:09:54.349Z,100176.06
2022-10-10T13:12:25.325Z,100170.16
2022-10-10T13:14:55.165Z,100164.22
2022-10-10T13:17:26.547Z,100169.28
2022-10-10T13:19:55.829Z,100170.97
2022-10-10T13:22:25.602Z,100161.69
2022-10-10T13:24:54.253Z,100160.84
2022-10-10T13:27:25.276Z,100165.03
2022-10-10T13:29:55.733Z,100162.47
2022-10-10T13:32:27.669Z,100167.50
2022-10-10T13:34:58.204Z,100159.91
2022-10-10T13:37:27.151Z,100172.53
2022-10-10T13:39:55.441Z,100150.56
2022-10-10T13:42:35.365Z,100160.66
2022-10-10T13:45:31.746Z,100156.44
2022-10-10T13:48:17.783Z,100158.97
2022-10-10T13:50:57.653Z,100153.88
2022-10-10T13:53:37.502Z,100149.59
2022-10-10T13:56:11.608Z,100145.34
2022-10-10T13:58:43.378Z,100158.91
2022-10-10T14:01:23.576Z,100151.25
2022-10-10T14:03:54.584Z,100152.97
2022-10-10T14:06:26.473Z,100148.72
2022-10-10T14:08:57.931Z,100146.25
2022-10-10T14:11:28.703Z,100143.75
2022-10-10T14:14:01.392Z,100142.13
2022-10-10T14:16:30.718Z,100142.19
2022-10-10T14:18:58.555Z,100134.59
2022-10-10T14:21:26.795Z,100135.50
2022-10-10T14:23:54.644Z,100129.59
2022-10-10T14:26:22.902Z,100128.72
2022-10-10T14:28:50.873Z,100127.88
2022-10-10T14:31:19.393Z,100127.81
2022-10-10T14:33:48.559Z,100121.88
2022-10-10T14:36:16.371Z,100127.75
2022-10-10T14:38:44.230Z,100125.22
2022-10-10T14:41:14.044Z,100126.91
2022-10-10T14:43:45.757Z,100126.06
2022-10-10T14:46:18.164Z,100125.25
2022-10-10T14:48:46.979Z,100116.81
2022-10-10T14:51:34.260Z,100117.69
2022-10-10T14:54:12.025Z,100122.75
2022-10-10T14:57:07.943Z,100125.28
2022-10-10T14:59:46.480Z,100117.72
2022-10-10T15:02:16.786Z,100105.91
2022-10-10T15:04:44.597Z,100112.66
2022-10-10T15:07:15.138Z,100117.75
2022-10-10T15:10:02.553Z,100121.97
2022-10-10T15:12:31.494Z,100117.69
2022-10-10T15:14:59.313Z,100120.22
2022-10-10T15:17:27.300Z,100121.03
2022-10-10T15:19:55.259Z,100116.78
2022-10-10T15:22:24.479Z,100115.06
2022-10-10T15:24:52.342Z,100118.44
2022-10-10T15:27:20.187Z,100117.53
2022-10-10T15:29:48.117Z,100114.16
2022-10-10T15:32:15.972Z,100114.06
2022-10-10T15:34:43.829Z,100114.88
2022-10-10T15:37:11.662Z,100109.78
2022-10-10T15:39:41.274Z,100116.47
2022-10-10T15:42:15.000Z,100116.41
2022-10-10T15:44:47.296Z,100118.03
2022-10-10T15:47:16.850Z,100114.59
2022-10-10T15:49:44.755Z,100114.56
2022-10-10T15:52:12.548Z,100118.66
2022-10-10T15:54:42.348Z,100127.03
2022-10-10T15:57:10.192Z,100120.22
2022-10-10T15:59:40.539Z,100118.44
2022-10-10T16:02:11.803Z,100125.94
2022-10-10T16:04:39.969Z,100126.63
2022-10-10T16:09:57.836Z,100134.88
2022-10-10T16:12:25.645Z,100134.78
2022-10-10T16:14:53.460Z,100133.88
2022-10-10T16:17:23.583Z,100142.19
2022-10-10T16:19:52.189Z,100137.91
2022-10-10T16:22:20.250Z,100131.91
2022-10-10T16:25:10.271Z,100136.88
2022-10-10T16:27:38.590Z,100138.50
2022-10-10T16:30:08.148Z,100135.03
2022-10-10T16:32:41.047Z,100131.59
2022-10-10T16:35:11.190Z,100134.09
2022-10-10T16:37:39.331Z,100129.91
2022-10-10T16:40:08.321Z,100139.97
2022-10-10T16:42:37.533Z,100142.50
2022-10-10T16:45:06.400Z,100135.78
2022-10-10T16:47:34.639Z,100139.94
2022-10-10T16:50:02.438Z,100145.88
2022-10-10T16:52:30.417Z,100150.06
2022-10-10T16:54:58.211Z,100144.19
2022-10-10T16:57:26.191Z,100144.19
2022-10-10T16:59:55.356Z,100141.66
2022-10-10T17:02:24.481Z,100148.38
2022-10-10T17:04:53.150Z,100147.50
2022-10-10T17:07:20.957Z,100147.44
2022-10-10T17:09:48.746Z,100155.84
2022-10-10T17:12:16.863Z,100146.56
2022-10-10T17:14:44.684Z,100153.25
2022-10-10T17:17:14.196Z,100147.38
2022-10-10T17:19:42.096Z,100155.75
2022-10-10T17:22:09.999Z,100143.13
2022-10-10T17:24:38.029Z,100148.97
2022-10-10T17:27:06.051Z,100150.56
2022-10-10T17:29:33.885Z,100144.63
2022-10-10T17:32:06.012Z,100141.19
2022-10-10T17:34:36.582Z,100142.78
2022-10-10T17:37:05.155Z,100144.41
2022-10-10T17:39:33.034Z,100149.41
2022-10-10T17:42:01.216Z,100134.19
2022-10-10T17:44:29.080Z,100145.97
2022-10-10T17:46:56.961Z,100147.66
2022-10-10T17:49:25.049Z,100141.75
2022-10-10T17:51:54.232Z,100150.13
2022-10-10T17:54:22.109Z,100146.72
2022-10-10T17:56:49.916Z,100145.88
2022-10-10T17:59:17.804Z,100153.41
2022-10-10T18:01:45.769Z,100154.22
2022-10-10T18:04:15.777Z,100150.75
2022-10-10T18:06:43.584Z,100161.69
2022-10-10T18:09:12.768Z,100157.38
2022-10-10T18:11:40.535Z,100151.41
2022-10-10T18:14:08.322Z,100154.75
2022-10-10T18:16:36.230Z,100156.50
2022-10-10T18:19:07.314Z,100154.78
2022-10-10T18:21:35.845Z,100153.06
2022-10-10T18:24:03.805Z,100153.84
2022-10-10T18:26:34.818Z,100152.09
2022-10-10T18:29:02.919Z,100152.00
2022-10-10T18:31:33.276Z,100152.00
2022-10-10T18:34:02.312Z,100148.50
2022-10-10T18:36:33.074Z,100155.25
2022-10-10T18:39:02.352Z,100151.72
2022-10-10T18:41:34.174Z,100150.91
2022-10-10T18:44:05.122Z,100155.81
2022-10-10T18:46:33.486Z,100156.44
2022-10-10T18:49:01.837Z,100144.41
2022-10-10T18:51:30.645Z,100157.69
2022-10-10T18:54:02.123Z,100158.41
2022-10-10T18:56:30.949Z,100143.94
2022-10-10T18:59:01.057Z,100142.19
2022-10-10T19:01:35.124Z,100142.97
2022-10-10T19:04:04.069Z,100138.59
2022-10-10T19:06:32.362Z,100140.97
2022-10-10T19:09:01.708Z,100143.47
2022-10-10T19:11:31.345Z,100140.22
2022-10-10T19:14:00.896Z,100145.31
2022-10-10T19:16:30.303Z,100140.34
2022-10-10T19:18:59.372Z,100144.56
2022-10-10T19:21:28.944Z,100146.28
2022-10-10T19:23:57.028Z,100144.59
2022-10-10T19:26:24.831Z,100143.69
2022-10-10T19:28:52.964Z,100146.03
2022-10-10T19:31:21.407Z,100149.31
2022-10-10T19:33:53.722Z,100152.63
2022-10-10T19:36:21.509Z,100140.75
2022-10-10T19:38:49.377Z,100145.78
2022-10-10T19:41:17.583Z,100151.63
2022-10-10T19:43:48.964Z,100147.44
2022-10-10T19:46:19.056Z,100150.59
2022-10-10T19:48:46.922Z,100162.81
2022-10-10T19:51:18.242Z,100155.91
2022-10-10T19:53:46.338Z,100145.84
2022-10-10T19:56:16.122Z,100130.41
2022-10-10T19:58:44.388Z,100159.41
2022-10-10T20:01:14.926Z,100166.28
2022-10-10T20:03:43.143Z,100167.59
2022-10-10T20:06:11.789Z,100171.44
2022-10-10T20:08:41.999Z,100168.06
2022-10-10T20:11:10.763Z,100165.72
2022-10-10T20:13:38.718Z,100160.78
2022-10-10T20:16:09.592Z,100160.97
2022-10-10T20:18:38.947Z,100165.13
2022-10-10T20:21:17.143Z,100161.91
2022-10-10T20:23:47.853Z,100149.13
2022-10-10T20:26:20.071Z,100165.19
2022-10-10T20:28:48.048Z,100150.75
2022-10-10T20:31:19.942Z,100177.78
2022-10-10T20:33:49.024Z,100174.38
2022-10-10T20:36:17.599Z,100182.72
2022-10-10T20:38:52.420Z,100178.59
2022-10-10T20:41:20.332Z,100186.13
2022-10-10T20:43:48.372Z,100177.78
2022-10-10T20:46:16.765Z,100183.69
2022-10-10T20:48:44.605Z,100178.72
2022-10-10T20:51:14.399Z,100176.25
2022-10-10T20:53:42.800Z,100172.91
2022-10-10T20:56:13.451Z,100167.00
2022-10-10T20:58:41.847Z,100175.38
2022-10-10T21:01:11.815Z,100171.22
2022-10-10T21:03:40.274Z,100185.47
2022-10-10T21:06:11.261Z,100183.97
2022-10-10T21:08:39.693Z,100185.03
2022-10-10T21:11:09.383Z,100181.72
2022-10-10T21:13:40.193Z,100184.88
2022-10-10T21:16:10.494Z,100176.69
2022-10-10T21:18:38.486Z,100181.03
2022-10-10T21:21:07.483Z,100174.34
2022-10-10T21:23:37.928Z,100187.69
2022-10-10T21:26:08.000Z,100186.81
2022-10-10T21:28:36.711Z,100177.78
2022-10-10T21:31:06.612Z,100178.59
2022-10-10T21:33:35.639Z,100176.69
2022-10-10T21:36:03.927Z,100173.22
2022-10-10T21:38:32.280Z,100179.44
2022-10-10T21:41:06.553Z,100172.66
2022-10-10T21:43:34.921Z,100160.28
2022-10-10T21:46:04.540Z,100177.38
2022-10-10T21:48:34.191Z,100164.94
2022-10-10T21:51:02.040Z,100167.47
2022-10-10T21:53:29.841Z,100165.22
2022-10-10T21:55:57.962Z,100167.06
2022-10-10T21:58:26.664Z,100170.47
2022-10-10T22:00:54.616Z,100166.94
2022-10-10T22:03:22.442Z,100169.44
2022-10-10T22:05:51.547Z,100174.53
2022-10-10T22:08:19.349Z,100169.97
2022-10-10T22:10:47.145Z,100169.59
2022-10-10T22:13:14.942Z,100167.91
2022-10-10T22:15:43.015Z,100161.13
2022-10-10T22:18:10.900Z,100164.75
2022-10-10T22:20:38.688Z,100174.16
2022-10-10T22:23:07.833Z,100160.09
2022-10-10T22:25:35.612Z,100169.53
2022-10-10T22:28:06.244Z,100166.25
2022-10-10T22:30:34.339Z,100157.72
2022-10-10T22:33:02.254Z,100164.13
2022-10-10T22:35:30.174Z,100169.75
2022-10-10T22:37:58.006Z,100169.56
2022-10-10T22:40:27.878Z,100175.19
2022-10-10T22:42:55.790Z,100171.13
2022-10-10T22:45:24.250Z,100164.50
2022-10-10T22:47:52.231Z,100150.25
2022-10-10T22:50:20.457Z,100168.44
2022-10-10T22:52:48.337Z,100157.81
2022-10-10T22:55:18.693Z,100150.34
2022-10-10T22:57:48.253Z,100155.53
2022-10-10T23:00:17.235Z,100158.84
2022-10-10T23:02:45.228Z,100163.88
2022-10-10T23:05:13.233Z,100158.94
2022-10-10T23:07:41.060Z,100157.72
2022-10-10T23:10:10.166Z,100154.91
2022-10-10T23:12:38.610Z,100141.53
2022-10-10T23:15:08.822Z,100160.25
2022-10-10T23:17:39.183Z,100151.84
2022-10-10T23:20:08.460Z,100156.78
2022-10-10T23:22:36.437Z,100147.34
2022-10-10T23:25:04.733Z,100157.25
2022-10-10T23:27:32.561Z,100162.88
2022-10-10T23:30:00.351Z,100169.28
2022-10-10T23:32:30.331Z,100164.19
2022-10-10T23:34:58.101Z,100165.78
2022-10-10T23:37:27.630Z,100163.09
2022-10-10T23:39:55.476Z,100164.72
2022-10-10T23:42:23.324Z,100176.38
2022-10-10T23:44:51.165Z,100168.88
2022-10-10T23:47:19.049Z,100161.25
2022-10-10T23:49:48.253Z,100160.41
2022-10-10T23:52:16.147Z,100162.09
2022-10-10T23:54:43.969Z,100166.56
2022-10-10T23:57:11.771Z,100158.63
2022-10-10T23:59:39.632Z,100160.56
